createdAt,value
2017-08-17T00:01:32.819Z,100978.56
2017-08-17T00:04:00.215Z,100973.75
2017-08-17T00:06:27.410Z,100966.78
2017-08-17T00:08:55.029Z,100953.27
2017-08-17T00:11:22.363Z,100951.97
2017-08-17T00:13:49.855Z,100952.86
2017-08-17T00:16:17.032Z,100950.23
2017-08-17T00:18:44.216Z,100948.45
2017-08-17T00:21:11.813Z,100947.15
2017-08-17T00:23:39.325Z,100950.66
2017-08-17T00:26:06.498Z,100938.45
2017-08-17T00:28:34.185Z,100928.41
2017-08-17T00:31:01.639Z,100932.80
2017-08-17T00:33:29.144Z,100930.61
2017-08-17T00:35:56.663Z,100935.84
2017-08-17T00:38:24.004Z,100939.35
2017-08-17T00:40:51.465Z,100930.19
2017-08-17T00:43:18.633Z,100935.84
2017-08-17T00:45:46.006Z,100930.14
2017-08-17T00:48:13.222Z,100930.08
2017-08-17T00:50:40.670Z,100924.84
2017-08-17T00:53:08.137Z,100922.91
2017-08-17T00:55:35.590Z,100928.87
2017-08-17T00:58:03.047Z,100927.09
2017-08-17T01:00:30.212Z,100924.91
2017-08-17T01:02:57.853Z,100923.28
2017-08-17T01:05:25.040Z,100925.00
2017-08-17T01:07:52.226Z,100926.42
2017-08-17T01:10:20.176Z,100922.19
2017-08-17T01:12:47.360Z,100929.20
2017-08-17T01:15:14.544Z,100929.25
2017-08-17T01:17:41.785Z,100924.44
2017-08-17T01:20:09.432Z,100920.17
2017-08-17T01:22:36.764Z,100921.06
2017-08-17T01:25:04.163Z,100915.41
2017-08-17T01:27:31.705Z,100910.18
2017-08-17T01:29:58.941Z,100906.72
2017-08-17T01:32:26.213Z,100912.84
2017-08-17T01:34:53.384Z,100908.92
2017-08-17T01:37:21.143Z,100908.50
2017-08-17T01:39:48.318Z,100905.83
2017-08-17T01:42:15.520Z,100903.69
2017-08-17T01:44:42.708Z,100906.78
2017-08-17T01:47:10.241Z,100902.43
2017-08-17T01:49:37.483Z,100902.43
2017-08-17T01:52:04.975Z,100897.20
2017-08-17T01:54:32.156Z,100899.39
2017-08-17T01:56:59.566Z,100893.27
2017-08-17T01:59:27.026Z,100885.89
2017-08-17T02:01:54.544Z,100887.61
2017-08-17T02:04:22.062Z,100882.38
2017-08-17T02:06:49.392Z,100885.05
2017-08-17T02:09:16.849Z,100884.58
2017-08-17T02:11:44.489Z,100885.94
2017-08-17T02:14:11.772Z,100879.88
2017-08-17T02:16:39.535Z,100886.36
2017-08-17T02:19:07.301Z,100892.91
2017-08-17T02:21:34.487Z,100895.11
2017-08-17T02:24:01.654Z,100892.07
2017-08-17T02:26:28.835Z,100893.80
2017-08-17T02:28:56.199Z,100901.23
2017-08-17T02:31:23.854Z,100905.10
2017-08-17T02:33:51.039Z,100905.58
2017-08-17T02:36:18.271Z,100910.39
2017-08-17T02:38:45.722Z,100914.32
2017-08-17T02:41:13.097Z,100904.73
2017-08-17T02:43:40.289Z,100902.54
2017-08-17T02:46:08.400Z,100900.34
2017-08-17T02:48:35.587Z,100901.28
2017-08-17T02:51:02.767Z,100895.63
2017-08-17T02:53:29.938Z,100891.23
2017-08-17T02:55:57.378Z,100887.78
2017-08-17T02:58:25.081Z,100890.81
2017-08-17T03:00:52.249Z,100886.00
2017-08-17T03:03:19.431Z,100885.16
2017-08-17T03:05:46.597Z,100889.45
2017-08-17T03:08:13.765Z,100890.39
2017-08-17T03:10:40.937Z,100890.81
2017-08-17T03:13:08.286Z,100893.02
2017-08-17T03:15:35.464Z,100884.69
2017-08-17T03:18:02.884Z,100877.30
2017-08-17T03:20:30.125Z,100882.13
2017-08-17T03:22:57.617Z,100879.09
2017-08-17T03:25:24.949Z,100890.39
2017-08-17T03:27:52.125Z,100895.63
2017-08-17T03:30:19.312Z,100891.76
2017-08-17T03:32:47.024Z,100885.63
2017-08-17T03:35:14.216Z,100887.83
2017-08-17T03:37:41.399Z,100886.52
2017-08-17T03:40:08.574Z,100891.76
2017-08-17T03:42:35.756Z,100888.72
2017-08-17T03:45:03.062Z,100893.95
2017-08-17T03:47:30.716Z,100884.80
2017-08-17T03:49:57.904Z,100886.52
2017-08-17T03:52:25.200Z,100886.11
2017-08-17T03:54:52.370Z,100880.87
2017-08-17T03:57:19.546Z,100884.33
2017-08-17T03:59:47.077Z,100881.77
2017-08-17T04:02:14.353Z,100881.77
2017-08-17T04:04:41.808Z,100870.81
2017-08-17T04:07:09.454Z,100873.02
2017-08-17T04:09:36.726Z,100870.44
2017-08-17T04:12:04.183Z,100872.95
2017-08-17T04:14:31.368Z,100872.31
2017-08-17T04:16:58.979Z,100874.16
2017-08-17T04:19:26.154Z,100869.78
2017-08-17T04:21:53.402Z,100867.86
2017-08-17T04:24:20.927Z,100865.98
2017-08-17T04:26:48.419Z,100870.80
2017-08-17T04:29:15.609Z,100869.23
2017-08-17T04:31:43.130Z,100861.50
2017-08-17T04:34:10.546Z,100864.17
2017-08-17T04:36:37.728Z,100864.95
2017-08-17T04:39:04.987Z,100858.30
2017-08-17T04:41:32.622Z,100845.68
2017-08-17T04:43:59.962Z,100847.94
2017-08-17T04:46:27.459Z,100846.63
2017-08-17T04:48:54.629Z,100842.80
2017-08-17T04:51:21.965Z,100839.77
2017-08-17T04:53:49.609Z,100844.17
2017-08-17T04:56:22.208Z,100837.72
2017-08-17T04:58:49.555Z,100831.64
2017-08-17T05:01:17.013Z,100836.46
2017-08-17T05:03:44.468Z,100835.20
2017-08-17T05:06:11.925Z,100838.19
2017-08-17T05:08:39.097Z,100835.15
2017-08-17T05:11:06.606Z,100829.08
2017-08-17T05:13:33.773Z,100823.84
2017-08-17T05:16:01.141Z,100817.30
2017-08-17T05:18:28.597Z,100813.37
2017-08-17T05:20:56.250Z,100816.87
2017-08-17T05:23:23.440Z,100819.91
2017-08-17T05:25:50.666Z,100817.30
2017-08-17T05:28:18.120Z,100820.39
2017-08-17T05:30:45.576Z,100817.77
2017-08-17T05:33:12.760Z,100816.87
2017-08-17T05:35:39.929Z,100814.32
2017-08-17T05:38:07.132Z,100816.05
2017-08-17T05:40:34.305Z,100820.03
2017-08-17T05:43:01.948Z,100814.80
2017-08-17T05:45:29.574Z,100810.86
2017-08-17T05:47:57.168Z,100806.94
2017-08-17T05:50:24.352Z,100806.05
2017-08-17T05:52:51.768Z,100807.36
2017-08-17T05:55:19.224Z,100807.77
2017-08-17T05:57:46.411Z,100802.59
2017-08-17T06:00:13.581Z,100799.55
2017-08-17T06:02:41.093Z,100803.02
2017-08-17T06:05:08.439Z,100800.87
2017-08-17T06:07:35.610Z,100792.13
2017-08-17T06:10:02.971Z,100791.76
2017-08-17T06:12:30.512Z,100785.16
2017-08-17T06:14:58.030Z,100789.03
2017-08-17T06:17:25.420Z,100793.91
2017-08-17T06:19:53.067Z,100800.03
2017-08-17T06:22:20.238Z,100803.06
2017-08-17T06:24:47.410Z,100800.03
2017-08-17T06:27:14.631Z,100796.94
2017-08-17T06:29:42.406Z,100795.22
2017-08-17T06:32:10.054Z,100799.20
2017-08-17T06:34:37.312Z,100800.03
2017-08-17T06:37:04.486Z,100798.30
2017-08-17T06:39:31.657Z,100800.92
2017-08-17T06:41:58.838Z,100800.50
2017-08-17T06:44:26.009Z,100791.76
2017-08-17T06:46:53.177Z,100794.85
2017-08-17T06:49:20.521Z,100787.00
2017-08-17T06:51:47.703Z,100789.20
2017-08-17T06:54:14.888Z,100789.14
2017-08-17T06:56:42.053Z,100793.96
2017-08-17T06:59:09.441Z,100786.11
2017-08-17T07:01:36.962Z,100792.23
2017-08-17T07:04:04.656Z,100794.85
2017-08-17T07:06:32.296Z,100794.38
2017-08-17T07:08:59.466Z,100796.16
2017-08-17T07:11:26.651Z,100790.03
2017-08-17T07:13:53.817Z,100793.96
2017-08-17T07:16:21.003Z,100789.20
2017-08-17T07:18:48.468Z,100789.20
2017-08-17T07:21:16.002Z,100786.11
2017-08-17T07:23:43.190Z,100784.02
2017-08-17T07:26:10.537Z,100781.34
2017-08-17T07:28:37.724Z,100788.70
2017-08-17T07:31:05.457Z,100784.66
2017-08-17T07:33:32.909Z,100788.30
2017-08-17T07:36:00.075Z,100788.18
2017-08-17T07:38:27.422Z,100782.74
2017-08-17T07:40:54.608Z,100783.47
2017-08-17T07:43:21.882Z,100780.78
2017-08-17T07:45:49.376Z,100772.52
2017-08-17T07:48:16.563Z,100770.95
2017-08-17T07:50:44.085Z,100776.36
2017-08-17T07:53:11.257Z,100776.36
2017-08-17T07:55:38.443Z,100775.11
2017-08-17T07:58:05.627Z,100776.89
2017-08-17T08:00:32.817Z,100779.09
2017-08-17T08:03:00.447Z,100779.56
2017-08-17T08:05:27.617Z,100766.53
2017-08-17T08:07:55.031Z,100766.95
2017-08-17T08:10:22.309Z,100772.59
2017-08-17T08:12:49.764Z,100763.11
2017-08-17T08:15:17.409Z,100763.49
2017-08-17T08:17:44.994Z,100763.58
2017-08-17T08:20:12.166Z,100758.77
2017-08-17T08:22:39.337Z,100760.96
2017-08-17T08:25:06.751Z,100757.03
2017-08-17T08:27:34.270Z,100757.92
2017-08-17T08:30:01.764Z,100754.89
2017-08-17T08:32:29.123Z,100762.27
2017-08-17T08:34:56.748Z,100760.13
2017-08-17T08:37:24.029Z,100765.30
2017-08-17T08:39:51.682Z,100756.20
2017-08-17T08:42:18.946Z,100755.36
2017-08-17T08:44:46.400Z,100754.05
2017-08-17T08:47:13.858Z,100753.16
2017-08-17T08:49:41.501Z,100751.44
2017-08-17T08:52:08.677Z,100749.71
2017-08-17T08:54:35.914Z,100746.20
2017-08-17T08:57:03.152Z,100743.16
2017-08-17T08:59:30.646Z,100742.69
2017-08-17T09:01:57.986Z,100743.16
2017-08-17T09:04:25.177Z,100740.97
2017-08-17T09:06:52.359Z,100740.12
2017-08-17T09:09:19.751Z,100735.79
2017-08-17T09:11:46.929Z,100732.81
2017-08-17T09:14:14.356Z,100728.83
2017-08-17T09:16:41.525Z,100730.97
2017-08-17T09:19:08.957Z,100732.70
2017-08-17T09:21:36.160Z,100738.87
2017-08-17T09:24:03.333Z,100731.39
2017-08-17T09:26:30.584Z,100733.64
2017-08-17T09:28:58.180Z,100735.73
2017-08-17T09:31:25.371Z,100730.97
2017-08-17T09:33:52.786Z,100728.35
2017-08-17T09:36:20.431Z,100723.53
2017-08-17T09:38:47.672Z,100720.97
2017-08-17T09:41:15.265Z,100719.19
2017-08-17T09:43:42.437Z,100717.47
2017-08-17T09:46:09.760Z,100705.74
2017-08-17T09:48:36.934Z,100711.86
2017-08-17T09:51:04.369Z,100708.83
2017-08-17T09:53:31.822Z,100708.83
2017-08-17T09:55:59.469Z,100698.78
2017-08-17T09:58:26.729Z,100700.98
2017-08-17T10:00:54.509Z,100710.97
2017-08-17T10:03:21.682Z,100698.36
2017-08-17T10:05:48.864Z,100686.58
2017-08-17T10:08:16.266Z,100684.44
2017-08-17T10:10:43.722Z,100681.34
2017-08-17T10:13:11.241Z,100677.84
2017-08-17T10:15:38.581Z,100667.42
2017-08-17T10:18:06.826Z,100667.84
2017-08-17T10:20:34.161Z,100673.55
2017-08-17T10:23:01.618Z,100679.14
2017-08-17T10:25:28.804Z,100686.58
2017-08-17T10:27:56.009Z,100685.27
2017-08-17T10:30:23.179Z,100684.86
2017-08-17T10:32:50.350Z,100673.08
2017-08-17T10:35:17.522Z,100672.24
2017-08-17T10:37:44.712Z,100666.53
2017-08-17T10:40:11.881Z,100660.05
2017-08-17T10:42:39.436Z,100657.31
2017-08-17T10:45:06.606Z,100652.67
2017-08-17T10:47:34.044Z,100653.64
2017-08-17T10:50:01.497Z,100654.81
2017-08-17T10:52:28.665Z,100657.30
2017-08-17T10:54:55.853Z,100663.94
2017-08-17T10:57:23.250Z,100664.72
2017-08-17T10:59:50.896Z,100665.52
2017-08-17T11:02:18.483Z,100668.38
2017-08-17T11:04:45.938Z,100670.68
2017-08-17T11:07:13.114Z,100664.92
2017-08-17T11:09:40.541Z,100662.36
2017-08-17T11:12:08.184Z,100665.09
2017-08-17T11:14:35.379Z,100659.02
2017-08-17T11:17:02.790Z,100652.95
2017-08-17T11:19:29.962Z,100663.91
2017-08-17T11:21:57.402Z,100649.98
2017-08-17T11:24:24.669Z,100648.67
2017-08-17T11:26:51.842Z,100650.45
2017-08-17T11:29:19.454Z,100651.77
2017-08-17T11:31:46.640Z,100650.03
2017-08-17T11:34:14.164Z,100657.09
2017-08-17T11:36:42.332Z,100657.56
2017-08-17T11:39:09.717Z,100655.78
2017-08-17T11:41:36.889Z,100657.09
2017-08-17T11:44:04.436Z,100653.96
2017-08-17T11:46:31.606Z,100660.59
2017-08-17T11:48:58.779Z,100657.09
2017-08-17T11:51:25.499Z,100655.36
2017-08-17T11:53:52.924Z,100642.27
2017-08-17T11:56:20.446Z,100634.00
2017-08-17T11:58:47.687Z,100627.04
2017-08-17T12:01:14.988Z,100628.83
2017-08-17T12:03:42.249Z,100627.04
2017-08-17T12:06:09.417Z,100626.20
2017-08-17T12:08:36.933Z,100621.39
2017-08-17T12:11:04.106Z,100626.20
2017-08-17T12:13:31.641Z,100624.42
2017-08-17T12:15:58.818Z,100617.88
2017-08-17T12:18:26.275Z,100612.64
2017-08-17T12:20:53.445Z,100617.88
2017-08-17T12:23:20.610Z,100623.11
2017-08-17T12:25:47.791Z,100623.11
2017-08-17T12:28:15.177Z,100630.55
2017-08-17T12:30:42.632Z,100622.70
2017-08-17T12:33:10.280Z,100616.16
2017-08-17T12:35:37.549Z,100625.79
2017-08-17T12:38:05.006Z,100624.42
2017-08-17T12:40:32.186Z,100628.77
2017-08-17T12:42:59.676Z,100638.88
2017-08-17T12:45:26.845Z,100641.91
2017-08-17T12:47:54.411Z,100639.71
2017-08-17T12:50:21.597Z,100651.08
2017-08-17T12:52:48.769Z,100657.62
2017-08-17T12:55:15.971Z,100654.17
2017-08-17T12:57:43.629Z,100653.27
2017-08-17T13:00:10.816Z,100648.04
2017-08-17T13:02:38.239Z,100653.27
2017-08-17T13:05:05.488Z,100651.55
2017-08-17T13:07:32.671Z,100655.89
2017-08-17T13:10:00.342Z,100656.36
2017-08-17T13:12:27.633Z,100650.71
2017-08-17T13:14:55.056Z,100652.02
2017-08-17T13:17:22.419Z,100656.36
2017-08-17T13:19:49.617Z,100655.06
2017-08-17T13:22:16.792Z,100643.34
2017-08-17T13:24:44.421Z,100635.42
2017-08-17T13:27:11.696Z,100641.55
2017-08-17T13:29:39.206Z,100641.61
2017-08-17T13:32:06.610Z,100654.70
2017-08-17T13:34:34.069Z,100657.26
2017-08-17T13:37:01.708Z,100656.42
2017-08-17T13:39:28.975Z,100670.77
2017-08-17T13:41:56.749Z,100677.78
2017-08-17T13:44:24.188Z,100685.22
2017-08-17T13:46:51.666Z,100690.87
2017-08-17T13:49:19.043Z,100696.11
2017-08-17T13:51:46.337Z,100697.36
2017-08-17T13:54:13.720Z,100697.89
2017-08-17T13:56:41.247Z,100696.11
2017-08-17T13:59:08.431Z,100704.38
2017-08-17T14:01:35.981Z,100712.70
2017-08-17T14:04:03.244Z,100705.27
2017-08-17T14:06:30.423Z,100710.03
2017-08-17T14:08:57.607Z,100710.03
2017-08-17T14:11:24.781Z,100710.92
2017-08-17T14:13:51.963Z,100703.48
2017-08-17T14:16:19.301Z,100701.27
2017-08-17T14:18:46.473Z,100704.77
2017-08-17T14:21:13.914Z,100701.11
2017-08-17T14:23:41.370Z,100704.49
2017-08-17T14:26:08.540Z,100699.14
2017-08-17T14:28:35.718Z,100699.88
2017-08-17T14:31:02.900Z,100716.88
2017-08-17T14:33:30.272Z,100695.08
2017-08-17T14:35:57.446Z,100702.30
2017-08-17T14:38:24.718Z,100700.27
2017-08-17T14:40:51.907Z,100700.33
2017-08-17T14:43:19.176Z,100703.89
2017-08-17T14:45:46.640Z,100703.53
2017-08-17T14:48:13.812Z,100712.64
2017-08-17T14:50:41.240Z,100713.11
2017-08-17T14:53:08.700Z,100706.15
2017-08-17T14:55:36.036Z,100712.22
2017-08-17T14:58:03.313Z,100723.64
2017-08-17T15:00:30.900Z,100712.69
2017-08-17T15:02:58.415Z,100703.17
2017-08-17T15:05:25.992Z,100703.59
2017-08-17T15:07:53.450Z,100708.41
2017-08-17T15:10:20.901Z,100711.02
2017-08-17T15:12:48.356Z,100711.02
2017-08-17T15:15:15.806Z,100706.27
2017-08-17T15:17:43.261Z,100706.20
2017-08-17T15:20:10.430Z,100711.50
2017-08-17T15:22:37.602Z,100716.31
2017-08-17T15:25:05.038Z,100718.04
2017-08-17T15:27:32.205Z,100728.52
2017-08-17T15:29:59.373Z,100712.39
2017-08-17T15:32:26.788Z,100705.90
2017-08-17T15:34:54.288Z,100697.66
2017-08-17T15:37:21.709Z,100696.73
2017-08-17T15:39:48.890Z,100699.77
2017-08-17T15:42:16.060Z,100700.66
2017-08-17T15:44:43.229Z,100691.03
2017-08-17T15:47:10.412Z,100689.30
2017-08-17T15:49:37.823Z,100696.35
2017-08-17T15:52:05.011Z,100695.43
2017-08-17T15:54:32.369Z,100701.97
2017-08-17T15:56:59.896Z,100713.75
2017-08-17T15:59:27.281Z,100725.95
2017-08-17T16:01:54.496Z,100711.55
2017-08-17T16:04:22.074Z,100704.20
2017-08-17T16:06:49.345Z,100694.63
2017-08-17T16:09:16.800Z,100698.13
2017-08-17T16:11:43.973Z,100692.91
2017-08-17T16:14:11.410Z,100678.50
2017-08-17T16:16:38.936Z,100666.30
2017-08-17T16:19:06.329Z,100671.06
2017-08-17T16:21:33.787Z,100669.34
2017-08-17T16:24:01.289Z,100682.42
2017-08-17T16:26:28.493Z,100709.50
2017-08-17T16:28:55.923Z,100692.02
2017-08-17T16:31:23.415Z,100684.22
2017-08-17T16:33:50.956Z,100681.13
2017-08-17T16:36:18.201Z,100675.47
2017-08-17T16:38:45.384Z,100658.45
2017-08-17T16:41:12.567Z,100644.95
2017-08-17T16:43:39.977Z,100638.88
2017-08-17T16:46:07.160Z,100629.24
2017-08-17T16:48:34.345Z,100630.55
2017-08-17T16:51:01.730Z,100639.71
2017-08-17T16:53:29.370Z,100637.09
2017-08-17T16:55:56.567Z,100641.91
2017-08-17T16:58:23.802Z,100651.48
2017-08-17T17:00:51.449Z,100653.22
2017-08-17T17:03:19.024Z,100648.04
2017-08-17T17:05:46.534Z,100651.91
2017-08-17T17:08:13.711Z,100667.67
2017-08-17T17:10:41.268Z,100677.25
2017-08-17T17:13:08.614Z,100685.52
2017-08-17T17:15:35.997Z,100689.87
2017-08-17T17:18:03.458Z,100702.06
2017-08-17T17:20:30.621Z,100710.39
2017-08-17T17:22:58.061Z,100713.00
2017-08-17T17:25:25.516Z,100703.84
2017-08-17T17:27:52.976Z,100688.61
2017-08-17T17:30:20.186Z,100671.59
2017-08-17T17:32:47.897Z,100678.14
2017-08-17T17:35:15.088Z,100676.42
2017-08-17T17:37:42.811Z,100682.91
2017-08-17T17:40:10.451Z,100689.92
2017-08-17T17:42:38.032Z,100704.12
2017-08-17T17:45:05.472Z,100710.63
2017-08-17T17:47:33.126Z,100694.37
2017-08-17T17:50:00.403Z,100708.34
2017-08-17T17:52:27.914Z,100706.63
2017-08-17T17:54:55.156Z,100707.15
2017-08-17T17:57:22.456Z,100689.25
2017-08-17T17:59:49.920Z,100685.21
2017-08-17T18:02:17.508Z,100699.95
2017-08-17T18:04:44.839Z,100705.81
2017-08-17T18:07:12.005Z,100696.34
2017-08-17T18:09:39.632Z,100694.20
2017-08-17T18:12:06.824Z,100698.19
2017-08-17T18:14:34.048Z,100698.23
2017-08-17T18:17:01.688Z,100696.51
2017-08-17T18:19:28.863Z,100701.75
2017-08-17T18:21:56.299Z,100697.41
2017-08-17T18:24:23.572Z,100700.02
2017-08-17T18:26:50.741Z,100699.60
2017-08-17T18:29:17.909Z,100703.95
2017-08-17T18:31:45.325Z,100706.56
2017-08-17T18:34:12.501Z,100707.45
2017-08-17T18:36:39.932Z,100702.28
2017-08-17T18:39:07.110Z,100701.45
2017-08-17T18:41:34.611Z,100701.39
2017-08-17T18:44:02.203Z,100700.08
2017-08-17T18:46:29.769Z,100697.94
2017-08-17T18:48:57.533Z,100701.86
2017-08-17T18:51:25.056Z,100698.35
2017-08-17T18:53:52.226Z,100702.69
2017-08-17T18:56:19.412Z,100699.66
2017-08-17T18:58:46.604Z,100707.93
2017-08-17T19:01:14.076Z,100705.31
2017-08-17T19:03:41.261Z,100699.66
2017-08-17T19:06:08.489Z,100697.94
2017-08-17T19:08:36.025Z,100701.86
2017-08-17T19:11:03.202Z,100704.48
2017-08-17T19:13:30.613Z,100703.64
2017-08-17T19:15:58.027Z,100704.95
2017-08-17T19:18:25.643Z,100711.08
2017-08-17T19:20:53.246Z,100699.30
2017-08-17T19:23:20.907Z,100707.16
2017-08-17T19:25:48.469Z,100702.80
2017-08-17T19:28:15.921Z,100705.01
2017-08-17T19:30:43.583Z,100701.08
2017-08-17T19:33:10.763Z,100703.64
2017-08-17T19:35:37.933Z,100701.91
2017-08-17T19:38:05.756Z,100697.58
2017-08-17T19:40:32.923Z,100701.02
2017-08-17T19:43:00.366Z,100703.28
2017-08-17T19:45:28.013Z,100702.39
2017-08-17T19:47:55.190Z,100705.42
2017-08-17T19:50:22.504Z,100703.28
2017-08-17T19:52:49.691Z,100708.94
2017-08-17T19:55:48.422Z,100707.63
2017-08-17T19:58:15.593Z,100701.97
2017-08-17T20:00:43.166Z,100705.42
2017-08-17T20:03:10.431Z,100708.94
2017-08-17T20:05:37.879Z,100708.13
2017-08-17T20:08:05.656Z,100701.97
2017-08-17T20:10:32.855Z,100699.86
2017-08-17T20:13:00.256Z,100704.59
2017-08-17T20:15:27.437Z,100706.41
2017-08-17T20:17:54.901Z,100703.79
2017-08-17T20:20:22.082Z,100696.83
2017-08-17T20:22:49.260Z,100699.45
2017-08-17T20:25:16.426Z,100695.09
2017-08-17T20:27:43.769Z,100699.36
2017-08-17T20:30:10.948Z,100699.45
2017-08-17T20:32:38.491Z,100696.73
2017-08-17T20:35:05.835Z,100692.91
2017-08-17T20:37:33.349Z,100689.39
2017-08-17T20:40:00.523Z,100689.39
2017-08-17T20:42:27.686Z,100681.03
2017-08-17T20:44:55.056Z,100682.02
2017-08-17T20:47:22.505Z,100679.81
2017-08-17T20:49:49.678Z,100685.05
2017-08-17T20:52:16.845Z,100678.09
2017-08-17T20:54:44.012Z,100672.38
2017-08-17T20:57:11.190Z,100673.73
2017-08-17T20:59:38.758Z,100671.55
2017-08-17T21:02:05.933Z,100668.92
2017-08-17T21:04:33.101Z,100659.34
2017-08-17T21:07:00.385Z,100659.45
2017-08-17T21:09:27.775Z,100662.13
2017-08-17T21:11:55.168Z,100658.02
2017-08-17T21:14:22.348Z,100659.80
2017-08-17T21:16:50.305Z,100653.98
2017-08-17T21:19:17.606Z,100657.73
2017-08-17T21:21:45.139Z,100660.75
2017-08-17T21:24:12.307Z,100656.16
2017-08-17T21:26:39.673Z,100645.50
2017-08-17T21:29:06.864Z,100645.36
2017-08-17T21:31:34.344Z,100650.67
2017-08-17T21:34:01.731Z,100644.22
2017-08-17T21:36:28.915Z,100643.00
2017-08-17T21:38:56.096Z,100653.54
2017-08-17T21:41:23.493Z,100656.77
2017-08-17T21:43:50.955Z,100650.52
2017-08-17T21:46:18.408Z,100644.08
2017-08-17T21:48:45.860Z,100649.88
2017-08-17T21:51:13.320Z,100648.62
2017-08-17T21:53:40.503Z,100655.65
2017-08-17T21:56:08.107Z,100660.47
2017-08-17T21:58:35.292Z,100652.25
2017-08-17T22:01:02.475Z,100656.18
2017-08-17T22:03:29.691Z,100659.22
2017-08-17T22:05:56.880Z,100656.66
2017-08-17T22:08:24.418Z,100649.22
2017-08-17T22:10:51.590Z,100651.06
2017-08-17T22:13:19.078Z,100644.09
2017-08-17T22:15:46.356Z,100639.28
2017-08-17T22:18:13.814Z,100642.78
2017-08-17T22:20:41.271Z,100642.78
2017-08-17T22:23:08.728Z,100646.30
2017-08-17T22:25:36.242Z,100649.80
2017-08-17T22:28:03.641Z,100640.64
2017-08-17T22:30:31.198Z,100639.34
2017-08-17T22:32:58.362Z,100639.34
2017-08-17T22:35:25.541Z,100641.95
2017-08-17T22:37:52.862Z,100642.42
2017-08-17T22:40:20.315Z,100643.32
2017-08-17T22:42:47.482Z,100644.16
2017-08-17T22:45:14.646Z,100635.05
2017-08-17T22:47:42.023Z,100638.98
2017-08-17T22:50:09.529Z,100642.02
2017-08-17T22:52:36.988Z,100645.52
2017-08-17T22:55:04.444Z,100650.76
2017-08-17T22:57:31.900Z,100642.91
2017-08-17T22:59:59.081Z,100639.87
2017-08-17T23:02:26.425Z,100636.42
2017-08-17T23:04:53.656Z,100634.22
2017-08-17T23:07:21.122Z,100632.02
2017-08-17T23:09:48.285Z,100637.25
2017-08-17T23:12:15.450Z,100634.63
2017-08-17T23:14:42.614Z,100632.91
2017-08-17T23:17:09.777Z,100628.50
2017-08-17T23:19:36.955Z,100626.78
2017-08-17T23:22:04.515Z,100617.61
2017-08-17T23:24:31.780Z,100622.91
2017-08-17T23:26:59.023Z,100624.64
2017-08-17T23:29:26.567Z,100620.29
2017-08-17T23:31:53.763Z,100625.05
2017-08-17T23:34:21.178Z,100627.25
2017-08-17T23:36:48.458Z,100627.25
2017-08-17T23:39:15.621Z,100617.25
2017-08-17T23:41:43.059Z,100618.09
2017-08-17T23:44:10.521Z,100622.91
2017-08-17T23:46:38.164Z,100624.64
2017-08-17T23:49:05.745Z,100625.94
2017-08-17T23:51:32.917Z,100631.18
2017-08-17T23:54:00.345Z,100622.91
2017-08-17T23:56:27.511Z,100625.94
2017-08-17T23:58:54.958Z,100629.45
